createdAt,value
2022-12-08T00:00:36.259Z,100079.59
2022-12-08T00:01:39.184Z,100081.31
2022-12-08T00:02:44.356Z,100078.66
2022-12-08T00:03:47.222Z,100088.31
2022-12-08T00:05:07.708Z,100081.97
2022-12-08T00:06:50.115Z,100075.72
2022-12-08T00:08:10.982Z,100078.53
2022-12-08T00:09:39.331Z,100082.06
2022-12-08T00:10:49.633Z,100080.38
2022-12-08T00:12:13.084Z,100080.41
2022-12-08T00:13:15.280Z,100079.59
2022-12-08T00:14:17.961Z,100078.75
2022-12-08T00:15:20.125Z,100077.91
2022-12-08T00:16:22.379Z,100084.13
2022-12-08T00:17:24.640Z,100074.25
2022-12-08T00:18:27.023Z,100065.44
2022-12-08T00:19:30.615Z,100071.59
2022-12-08T00:20:32.780Z,100071.59
2022-12-08T00:21:35.147Z,100076.00
2022-12-08T00:22:37.283Z,100071.59
2022-12-08T00:23:39.675Z,100057.44
2022-12-08T00:24:44.975Z,100068.09
2022-12-08T00:25:47.180Z,100068.09
2022-12-08T00:26:50.012Z,100072.50
2022-12-08T00:27:52.195Z,100066.28
2022-12-08T00:28:54.378Z,100071.59
2022-12-08T00:29:56.591Z,100074.25
2022-12-08T00:30:58.915Z,100072.47
2022-12-08T00:32:01.301Z,100075.94
2022-12-08T00:33:03.520Z,100069.75
2022-12-08T00:34:06.433Z,100070.53
2022-12-08T00:35:08.817Z,100066.06
2022-12-08T00:36:13.765Z,100070.56
2022-12-08T00:37:16.296Z,100064.31
2022-12-08T00:38:18.503Z,100065.25
2022-12-08T00:39:20.689Z,100070.44
2022-12-08T00:40:22.934Z,100061.63
2022-12-08T00:41:45.302Z,100066.78
2022-12-08T00:42:47.449Z,100058.88
2022-12-08T00:43:49.872Z,100061.53
2022-12-08T00:44:52.094Z,100068.63
2022-12-08T00:45:54.528Z,100065.22
2022-12-08T00:46:56.951Z,100068.72
2022-12-08T00:47:59.156Z,100071.38
2022-12-08T00:49:01.584Z,100059.00
2022-12-08T00:50:07.353Z,100062.50
2022-12-08T00:51:09.589Z,100061.69
2022-12-08T00:52:13.114Z,100062.41
2022-12-08T00:53:15.284Z,100067.69
2022-12-08T00:54:18.267Z,100068.53
2022-12-08T00:55:20.419Z,100062.38
2022-12-08T00:56:23.129Z,100063.22
2022-12-08T00:57:25.503Z,100059.63
2022-12-08T00:58:27.814Z,100060.34
2022-12-08T00:59:30.014Z,100063.63
2022-12-08T01:00:32.201Z,100065.28
2022-12-08T01:01:35.289Z,100059.91
2022-12-08T01:02:37.942Z,100060.97
2022-12-08T01:03:41.149Z,100072.53
2022-12-08T01:04:43.633Z,100066.63
2022-12-08T01:05:45.973Z,100066.75
2022-12-08T01:06:48.553Z,100067.69
2022-12-08T01:07:51.229Z,100072.09
2022-12-08T01:08:53.646Z,100070.41
2022-12-08T01:09:57.675Z,100070.41
2022-12-08T01:11:05.070Z,100070.41
2022-12-08T01:12:07.799Z,100076.44
2022-12-08T01:13:09.992Z,100074.66
2022-12-08T01:14:13.077Z,100071.88
2022-12-08T01:15:15.532Z,100070.19
2022-12-08T01:16:27.252Z,100070.34
2022-12-08T01:17:29.481Z,100073.88
2022-12-08T01:18:32.445Z,100080.09
2022-12-08T01:19:35.070Z,100073.03
2022-12-08T01:20:37.289Z,100073.03
2022-12-08T01:21:41.039Z,100075.63
2022-12-08T01:22:43.395Z,100079.00
2022-12-08T01:23:45.981Z,100078.13
2022-12-08T01:24:48.518Z,100077.31
2022-12-08T01:25:51.816Z,100072.09
2022-12-08T01:26:55.817Z,100069.50
2022-12-08T01:27:58.143Z,100074.78
2022-12-08T01:29:00.325Z,100069.50
2022-12-08T01:30:03.837Z,100067.78
2022-12-08T01:31:11.614Z,100064.22
2022-12-08T01:32:13.843Z,100073.91
2022-12-08T01:33:16.176Z,100065.94
2022-12-08T01:34:18.328Z,100071.03
2022-12-08T01:35:20.698Z,100068.53
2022-12-08T01:36:25.416Z,100065.00
2022-12-08T01:37:27.772Z,100061.41
2022-12-08T01:38:30.874Z,100058.78
2022-12-08T01:39:33.046Z,100052.72
2022-12-08T01:40:35.395Z,100050.97
2022-12-08T01:41:39.820Z,100055.41
2022-12-08T01:42:41.996Z,100056.16
2022-12-08T01:43:56.004Z,100060.56
2022-12-08T01:45:02.542Z,100061.31
2022-12-08T01:46:05.621Z,100055.06
2022-12-08T01:47:08.535Z,100057.75
2022-12-08T01:48:31.794Z,100052.34
2022-12-08T01:49:36.381Z,100058.53
2022-12-08T01:50:42.216Z,100054.25
2022-12-08T01:51:59.103Z,100052.31
2022-12-08T01:53:14.593Z,100053.13
2022-12-08T01:54:17.146Z,100056.66
2022-12-08T01:55:26.171Z,100053.84
2022-12-08T01:56:35.769Z,100047.88
2022-12-08T01:57:43.240Z,100050.53
2022-12-08T01:58:49.855Z,100045.31
2022-12-08T02:00:04.999Z,100047.25
2022-12-08T02:01:10.119Z,100048.09
2022-12-08T02:02:12.761Z,100041.00
2022-12-08T02:03:22.669Z,100048.09
2022-12-08T02:04:24.884Z,100042.78
2022-12-08T02:05:33.353Z,100044.50
2022-12-08T02:06:39.966Z,100040.09
2022-12-08T02:07:43.958Z,100047.16
2022-12-08T02:08:47.711Z,100044.72
2022-12-08T02:09:51.527Z,100035.97
2022-12-08T02:10:53.740Z,100036.69
2022-12-08T02:11:58.166Z,100040.19
2022-12-08T02:13:01.291Z,100042.66
2022-12-08T02:14:06.425Z,100034.75
2022-12-08T02:15:09.179Z,100038.34
2022-12-08T02:16:29.476Z,100028.66
2022-12-08T02:17:48.819Z,100036.69
2022-12-08T02:19:30.341Z,100029.63
2022-12-08T02:20:56.499Z,100028.59
2022-12-08T02:22:01.156Z,100024.13
2022-12-08T02:23:03.267Z,100022.50
2022-12-08T02:24:19.600Z,100013.97
2022-12-08T02:25:56.019Z,100015.84
2022-12-08T02:27:16.905Z,100012.38
2022-12-08T02:28:52.277Z,100006.91
2022-12-08T02:30:33.492Z,100009.47
2022-12-08T02:32:22.097Z,100006.91
2022-12-08T02:33:53.210Z,100008.56
2022-12-08T02:35:13.626Z,100008.41
2022-12-08T02:36:50.993Z,100004.13
2022-12-08T02:38:05.035Z,100009.28
2022-12-08T02:39:35.080Z,100000.34
2022-12-08T02:40:52.608Z,100001.34
2022-12-08T02:42:12.648Z,99997.78
2022-12-08T02:43:23.469Z,100002.13
2022-12-08T02:44:30.888Z,100001.19
2022-12-08T02:45:41.280Z,100002.16
2022-12-08T02:46:51.746Z,99994.25
2022-12-08T02:47:54.169Z,99999.53
2022-12-08T02:48:57.824Z,99990.75
2022-12-08T02:50:00.189Z,99996.78
2022-12-08T02:51:02.580Z,99991.59
2022-12-08T02:52:07.097Z,99989.78
2022-12-08T02:54:11.586Z,99991.44
2022-12-08T02:55:32.717Z,99998.47
2022-12-08T02:56:56.586Z,99995.69
2022-12-08T02:58:17.939Z,99997.59
2022-12-08T02:59:38.919Z,99995.94
2022-12-08T03:01:05.407Z,99986.22
2022-12-08T03:02:23.672Z,99980.06
2022-12-08T03:03:38.700Z,99987.28
2022-12-08T03:04:51.016Z,99983.69
2022-12-08T03:06:30.110Z,99974.84
2022-12-08T03:07:42.639Z,99973.03
2022-12-08T03:09:17.736Z,99980.81
2022-12-08T03:10:37.715Z,99986.06
2022-12-08T03:11:58.284Z,99977.41
2022-12-08T03:13:07.931Z,99976.34
2022-12-08T03:14:16.386Z,99971.03
2022-12-08T03:15:20.518Z,99969.19
2022-12-08T03:16:26.312Z,99964.78
2022-12-08T03:17:31.447Z,99970.88
2022-12-08T03:18:39.477Z,99973.41
2022-12-08T03:19:44.097Z,99966.22
2022-12-08T03:20:47.816Z,99968.03
2022-12-08T03:22:00.446Z,99969.00
2022-12-08T03:23:09.011Z,99962.94
2022-12-08T03:24:13.061Z,99965.59
2022-12-08T03:25:20.883Z,99969.06
2022-12-08T03:26:34.368Z,99969.13
2022-12-08T03:27:36.838Z,99963.03
2022-12-08T03:28:39.824Z,99970.06
2022-12-08T03:29:42.042Z,99968.13
2022-12-08T03:30:50.133Z,99972.59
2022-12-08T03:31:56.429Z,99963.78
2022-12-08T03:33:11.915Z,99966.31
2022-12-08T03:34:15.337Z,99956.56
2022-12-08T03:35:23.487Z,99961.97
2022-12-08T03:36:26.207Z,99957.56
2022-12-08T03:37:28.993Z,99961.19
2022-12-08T03:38:45.749Z,99949.97
2022-12-08T03:39:48.125Z,99960.44
2022-12-08T03:41:10.396Z,99951.75
2022-12-08T03:42:12.725Z,99952.56
2022-12-08T03:43:14.885Z,99950.03
2022-12-08T03:44:17.115Z,99951.72
2022-12-08T03:45:19.270Z,99944.66
2022-12-08T03:47:24.823Z,99951.72
2022-12-08T03:48:27.141Z,99954.34
2022-12-08T03:49:29.487Z,99950.84
2022-12-08T03:50:31.688Z,99950.69
2022-12-08T03:51:34.058Z,99940.97
2022-12-08T03:52:36.257Z,99940.91
2022-12-08T03:53:38.885Z,99941.81
2022-12-08T03:54:41.243Z,99944.56
2022-12-08T03:55:43.525Z,99938.94
2022-12-08T03:56:45.908Z,99934.31
2022-12-08T03:57:48.110Z,99934.19
2022-12-08T03:58:50.697Z,99932.44
2022-12-08T03:59:53.081Z,99931.63
2022-12-08T04:00:55.275Z,99937.75
2022-12-08T04:01:57.473Z,99937.66
2022-12-08T04:02:59.941Z,99934.84
2022-12-08T04:04:02.318Z,99931.22
2022-12-08T04:05:04.809Z,99932.28
2022-12-08T04:06:10.833Z,99926.09
2022-12-08T04:07:13.007Z,99922.47
2022-12-08T04:08:15.560Z,99924.38
2022-12-08T04:09:18.038Z,99924.97
2022-12-08T04:10:20.404Z,99926.75
2022-12-08T04:11:22.728Z,99921.63
2022-12-08T04:12:24.914Z,99919.75
2022-12-08T04:13:27.499Z,99917.16
2022-12-08T04:14:29.887Z,99919.78
2022-12-08T04:15:32.082Z,99917.19
2022-12-08T04:16:34.486Z,99914.59
2022-12-08T04:17:36.757Z,99915.38
2022-12-08T04:18:38.939Z,99911.03
2022-12-08T04:19:41.393Z,99910.06
2022-12-08T04:20:44.972Z,99906.44
2022-12-08T04:21:47.326Z,99905.56
2022-12-08T04:22:49.503Z,99914.50
2022-12-08T04:23:56.111Z,99912.13
2022-12-08T04:25:01.905Z,99909.53
2022-12-08T04:26:04.628Z,99902.63
2022-12-08T04:27:06.841Z,99902.66
2022-12-08T04:28:09.065Z,99898.16
2022-12-08T04:29:11.371Z,99909.59
2022-12-08T04:30:13.842Z,99905.03
2022-12-08T04:31:16.422Z,99908.41
2022-12-08T04:32:18.817Z,99904.06
2022-12-08T04:33:21.303Z,99905.16
2022-12-08T04:34:23.494Z,99900.00
2022-12-08T04:35:25.742Z,99904.38
2022-12-08T04:36:27.949Z,99898.19
2022-12-08T04:37:30.148Z,99905.06
2022-12-08T04:38:33.493Z,99896.28
2022-12-08T04:39:35.881Z,99905.06
2022-12-08T04:40:38.191Z,99903.25
2022-12-08T04:41:40.570Z,99902.50
2022-12-08T04:42:43.012Z,99899.72
2022-12-08T04:43:45.374Z,99899.06
2022-12-08T04:44:47.572Z,99892.72
2022-12-08T04:45:49.737Z,99899.72
2022-12-08T04:46:52.391Z,99899.72
2022-12-08T04:47:54.586Z,99898.88
2022-12-08T04:48:56.751Z,99898.88
2022-12-08T04:49:59.551Z,99895.31
2022-12-08T04:51:01.737Z,99891.94
2022-12-08T04:52:04.175Z,99889.97
2022-12-08T04:53:06.482Z,99889.19
2022-12-08T04:54:08.675Z,99895.09
2022-12-08T04:55:11.339Z,99887.97
2022-12-08T04:56:15.748Z,99897.72
2022-12-08T04:57:17.987Z,99889.97
2022-12-08T04:58:20.568Z,99893.47
2022-12-08T04:59:22.942Z,99889.03
2022-12-08T05:00:25.322Z,99890.75
2022-12-08T05:01:27.533Z,99890.66
2022-12-08T05:02:30.231Z,99898.59
2022-12-08T05:03:32.622Z,99891.69
2022-12-08T05:04:34.817Z,99887.38
2022-12-08T05:05:37.221Z,99898.88
2022-12-08T05:06:39.403Z,99894.34
2022-12-08T05:07:41.627Z,99893.66
2022-12-08T05:08:44.149Z,99891.13
2022-12-08T05:09:46.512Z,99892.91
2022-12-08T05:10:48.687Z,99892.91
2022-12-08T05:11:51.179Z,99898.03
2022-12-08T05:12:53.367Z,99891.75
2022-12-08T05:13:55.739Z,99896.16
2022-12-08T05:14:58.115Z,99897.13
2022-12-08T05:16:05.166Z,99892.75
2022-12-08T05:17:09.689Z,99894.44
2022-12-08T05:18:12.165Z,99883.53
2022-12-08T05:19:15.243Z,99885.34
2022-12-08T05:20:17.858Z,99884.34
2022-12-08T05:21:20.071Z,99883.56
2022-12-08T05:22:22.335Z,99882.84
2022-12-08T05:23:26.250Z,99889.00
2022-12-08T05:24:28.479Z,99881.78
2022-12-08T05:25:30.825Z,99886.25
2022-12-08T05:26:33.443Z,99885.25
2022-12-08T05:27:36.173Z,99878.22
2022-12-08T05:28:43.017Z,99887.19
2022-12-08T05:29:48.108Z,99884.50
2022-12-08T05:30:50.516Z,99885.38
2022-12-08T05:31:53.001Z,99890.00
2022-12-08T05:32:55.278Z,99881.91
2022-12-08T05:34:02.763Z,99880.16
2022-12-08T05:35:06.087Z,99884.44
2022-12-08T05:36:10.073Z,99883.53
2022-12-08T05:37:12.380Z,99884.53
2022-12-08T05:38:14.588Z,99881.63
2022-12-08T05:39:16.754Z,99884.44
2022-12-08T05:40:19.213Z,99887.84
2022-12-08T05:41:21.598Z,99884.44
2022-12-08T05:42:25.122Z,99885.47
2022-12-08T05:43:27.707Z,99879.41
2022-12-08T05:44:30.086Z,99883.75
2022-12-08T05:45:32.535Z,99880.22
2022-12-08T05:46:35.603Z,99884.41
2022-12-08T05:47:37.961Z,99885.97
2022-12-08T05:48:40.746Z,99884.22
2022-12-08T05:49:43.216Z,99880.59
2022-12-08T05:50:48.962Z,99879.88
2022-12-08T05:51:51.361Z,99877.94
2022-12-08T05:52:53.735Z,99881.56
2022-12-08T05:53:56.769Z,99879.94
2022-12-08T05:54:59.006Z,99879.09
2022-12-08T05:56:01.188Z,99876.56
2022-12-08T05:57:03.434Z,99883.44
2022-12-08T05:58:08.115Z,99871.97
2022-12-08T05:59:10.506Z,99871.94
2022-12-08T06:00:13.445Z,99877.16
2022-12-08T06:01:29.538Z,99871.78
2022-12-08T06:02:32.091Z,99872.69
2022-12-08T06:03:34.846Z,99871.81
2022-12-08T06:04:37.160Z,99878.81
2022-12-08T06:05:40.708Z,99867.44
2022-12-08T06:06:43.055Z,99869.31
2022-12-08T06:07:45.416Z,99871.88
2022-12-08T06:08:48.067Z,99867.63
2022-12-08T06:09:50.250Z,99869.19
2022-12-08T06:10:52.701Z,99875.16
2022-12-08T06:11:54.958Z,99873.38
2022-12-08T06:12:57.161Z,99872.41
2022-12-08T06:14:00.253Z,99871.63
2022-12-08T06:15:02.764Z,99869.03
2022-12-08T06:16:07.898Z,99869.97
2022-12-08T06:17:10.192Z,99868.34
2022-12-08T06:18:12.441Z,99867.44
2022-12-08T06:19:15.989Z,99870.03
2022-12-08T06:20:18.321Z,99870.81
2022-12-08T06:21:21.028Z,99875.31
2022-12-08T06:22:23.393Z,99865.56
2022-12-08T06:23:25.566Z,99872.66
2022-12-08T06:24:28.214Z,99871.72
2022-12-08T06:25:30.602Z,99868.06
2022-12-08T06:26:32.793Z,99878.53
2022-12-08T06:27:34.969Z,99877.91
2022-12-08T06:28:38.045Z,99879.66
2022-12-08T06:29:40.484Z,99882.22
2022-12-08T06:30:42.868Z,99877.63
2022-12-08T06:31:45.121Z,99884.78
2022-12-08T06:32:48.526Z,99880.34
2022-12-08T06:33:51.230Z,99885.84
2022-12-08T06:34:53.414Z,99880.56
2022-12-08T06:35:55.591Z,99881.31
2022-12-08T06:36:57.924Z,99881.41
2022-12-08T06:38:00.107Z,99883.09
2022-12-08T06:39:02.268Z,99890.16
2022-12-08T06:40:05.387Z,99884.03
2022-12-08T06:41:08.247Z,99885.78
2022-12-08T06:42:28.963Z,99888.50
2022-12-08T06:43:31.275Z,99887.75
2022-12-08T06:44:33.524Z,99890.47
2022-12-08T06:45:35.974Z,99892.97
2022-12-08T06:46:38.184Z,99882.41
2022-12-08T06:47:40.644Z,99894.78
2022-12-08T06:48:43.332Z,99885.88
2022-12-08T06:50:04.561Z,99890.38
2022-12-08T06:51:11.439Z,99883.97
2022-12-08T06:52:13.676Z,99886.03
2022-12-08T06:53:16.389Z,99891.25
2022-12-08T06:54:18.680Z,99888.59
2022-12-08T06:55:50.614Z,99890.50
2022-12-08T06:56:43.509Z,99895.63
2022-12-08T06:57:45.893Z,99891.00
2022-12-08T06:58:52.498Z,99894.53
2022-12-08T06:59:55.510Z,99890.16
2022-12-08T07:00:57.775Z,99894.69
2022-12-08T07:02:00.203Z,99899.16
2022-12-08T07:03:02.711Z,99898.25
2022-12-08T07:04:05.003Z,99899.16
2022-12-08T07:05:07.189Z,99897.34
2022-12-08T07:06:16.025Z,99895.72
2022-12-08T07:07:18.356Z,99900.19
2022-12-08T07:08:21.109Z,99890.34
2022-12-08T07:09:23.391Z,99890.25
2022-12-08T07:11:28.131Z,99902.66
2022-12-08T07:12:30.524Z,99893.03
2022-12-08T07:13:32.890Z,99898.19
2022-12-08T07:14:35.101Z,99894.78
2022-12-08T07:15:37.688Z,99900.16
2022-12-08T07:16:39.948Z,99901.06
2022-12-08T07:17:42.358Z,99905.59
2022-12-08T07:18:44.712Z,99906.41
2022-12-08T07:19:46.877Z,99904.84
2022-12-08T07:20:49.273Z,99901.16
2022-12-08T07:21:51.433Z,99907.56
2022-12-08T07:22:53.954Z,99902.34
2022-12-08T07:23:58.001Z,99906.09
2022-12-08T07:25:00.367Z,99913.22
2022-12-08T07:26:04.617Z,99909.38
2022-12-08T07:27:07.034Z,99910.38
2022-12-08T07:28:11.102Z,99917.44
2022-12-08T07:29:13.836Z,99910.38
2022-12-08T07:30:16.351Z,99908.63
2022-12-08T07:31:24.566Z,99908.06
2022-12-08T07:32:26.939Z,99897.34
2022-12-08T07:33:29.257Z,99907.00
2022-12-08T07:34:31.871Z,99907.72
2022-12-08T07:35:35.186Z,99891.84
2022-12-08T07:36:37.856Z,99901.66
2022-12-08T07:37:40.328Z,99902.41
2022-12-08T07:38:43.202Z,99905.66
2022-12-08T07:39:45.558Z,99910.03
2022-12-08T07:40:48.001Z,99900.38
2022-12-08T07:41:50.635Z,99899.41
2022-12-08T07:42:52.922Z,99903.22
2022-12-08T07:43:56.314Z,99904.22
2022-12-08T07:44:58.523Z,99894.44
2022-12-08T07:46:00.766Z,99892.66
2022-12-08T07:47:03.082Z,99897.06
2022-12-08T07:48:05.656Z,99889.94
2022-12-08T07:49:08.038Z,99892.88
2022-12-08T07:50:10.318Z,99891.81
2022-12-08T07:51:14.320Z,99890.09
2022-12-08T07:52:16.645Z,99899.63
2022-12-08T07:53:18.814Z,99894.44
2022-12-08T07:54:21.006Z,99889.94
2022-12-08T07:55:23.512Z,99888.00
2022-12-08T07:56:25.969Z,99902.97
2022-12-08T07:57:28.163Z,99896.97
2022-12-08T07:58:30.609Z,99891.69
2022-12-08T07:59:33.138Z,99889.00
2022-12-08T08:00:35.687Z,99893.28
2022-12-08T08:01:38.308Z,99885.25
2022-12-08T08:02:42.326Z,99892.97
2022-12-08T08:03:44.569Z,99892.88
2022-12-08T08:04:50.701Z,99892.13
2022-12-08T08:05:53.525Z,99885.78
2022-12-08T08:06:56.054Z,99891.06
2022-12-08T08:07:58.429Z,99892.03
2022-12-08T08:09:00.853Z,99888.25
2022-12-08T08:10:03.765Z,99886.28
2022-12-08T08:11:15.746Z,99889.72
2022-12-08T08:12:32.764Z,99892.22
2022-12-08T08:13:35.502Z,99894.94
2022-12-08T08:14:38.167Z,99885.31
2022-12-08T08:15:40.666Z,99892.25
2022-12-08T08:16:46.834Z,99889.59
2022-12-08T08:17:51.748Z,99891.22
2022-12-08T08:18:54.517Z,99894.22
2022-12-08T08:19:57.337Z,99894.88
2022-12-08T08:21:06.739Z,99897.69
2022-12-08T08:22:22.169Z,99891.66
2022-12-08T08:23:27.902Z,99896.88
2022-12-08T08:24:30.114Z,99896.94
2022-12-08T08:25:32.561Z,99894.94
2022-12-08T08:26:36.956Z,99895.69
2022-12-08T08:27:39.831Z,99894.53
2022-12-08T08:28:43.905Z,99894.44
2022-12-08T08:29:46.195Z,99900.63
2022-12-08T08:30:48.446Z,99897.88
2022-12-08T08:31:50.718Z,99886.38
2022-12-08T08:32:52.946Z,99893.34
2022-12-08T08:33:59.201Z,99893.22
2022-12-08T08:35:02.125Z,99900.38
2022-12-08T08:36:11.292Z,99891.19
2022-12-08T08:37:16.460Z,99896.22
2022-12-08T08:38:18.746Z,99897.13
2022-12-08T08:39:20.950Z,99899.63
2022-12-08T08:40:23.731Z,99900.63
2022-12-08T08:41:26.163Z,99900.41
2022-12-08T08:42:28.425Z,99889.50
2022-12-08T08:43:37.574Z,99900.16
2022-12-08T08:44:40.743Z,99893.28
2022-12-08T08:45:46.522Z,99903.16
2022-12-08T08:46:49.053Z,99901.34
2022-12-08T08:47:52.364Z,99893.38
2022-12-08T08:48:54.588Z,99901.38
2022-12-08T08:49:56.770Z,99901.25
2022-12-08T08:50:59.714Z,99900.16
2022-12-08T08:52:03.042Z,99897.66
2022-12-08T08:53:05.283Z,99896.69
2022-12-08T08:54:07.693Z,99904.63
2022-12-08T08:55:10.395Z,99893.22
2022-12-08T08:56:15.121Z,99895.31
2022-12-08T08:57:23.647Z,99899.69
2022-12-08T08:58:29.702Z,99890.72
2022-12-08T08:59:34.875Z,99891.63
2022-12-08T09:00:37.270Z,99889.78
2022-12-08T09:01:39.824Z,99898.63
2022-12-08T09:02:42.069Z,99892.28
2022-12-08T09:03:45.434Z,99895.03
2022-12-08T09:04:47.696Z,99890.31
2022-12-08T09:05:50.754Z,99894.66
2022-12-08T09:06:53.462Z,99893.66
2022-12-08T09:07:55.797Z,99891.00
2022-12-08T09:08:58.833Z,99898.19
2022-12-08T09:10:02.013Z,99899.94
2022-12-08T09:11:04.868Z,99904.34
2022-12-08T09:12:08.033Z,99896.38
2022-12-08T09:13:10.281Z,99900.59
2022-12-08T09:14:14.768Z,99900.56
2022-12-08T09:15:17.474Z,99900.75
2022-12-08T09:16:20.391Z,99895.97
2022-12-08T09:17:22.824Z,99895.94
2022-12-08T09:18:27.329Z,99895.88
2022-12-08T09:19:31.002Z,99899.22
2022-12-08T09:20:35.376Z,99896.91
2022-12-08T09:21:42.626Z,99895.94
2022-12-08T09:22:45.078Z,99892.63
2022-12-08T09:23:55.802Z,99890.91
2022-12-08T09:25:00.069Z,99895.94
2022-12-08T09:26:07.225Z,99889.63
2022-12-08T09:27:09.550Z,99891.22
2022-12-08T09:28:13.026Z,99894.81
2022-12-08T09:29:15.676Z,99893.06
2022-12-08T09:30:17.916Z,99891.34
2022-12-08T09:31:24.447Z,99887.75
2022-12-08T09:32:26.696Z,99887.72
2022-12-08T09:33:30.749Z,99883.94
2022-12-08T09:34:33.150Z,99887.44
2022-12-08T09:35:35.517Z,99883.81
2022-12-08T09:36:37.894Z,99888.97
2022-12-08T09:37:42.689Z,99876.38
2022-12-08T09:38:49.169Z,99889.28
2022-12-08T09:39:53.669Z,99881.47
2022-12-08T09:40:56.183Z,99882.47
2022-12-08T09:42:07.419Z,99888.97
2022-12-08T09:43:23.294Z,99882.91
2022-12-08T09:44:55.505Z,99877.25
2022-12-08T09:45:58.694Z,99879.75
2022-12-08T09:47:05.163Z,99887.69
2022-12-08T09:48:11.930Z,99881.41
2022-12-08T09:49:21.911Z,99887.69
2022-12-08T09:50:45.881Z,99878.97
2022-12-08T09:51:48.451Z,99883.16
2022-12-08T09:53:02.542Z,99884.16
2022-12-08T09:54:24.119Z,99884.16
2022-12-08T09:55:55.596Z,99883.88
2022-12-08T09:57:06.370Z,99884.91
2022-12-08T09:58:20.790Z,99872.50
2022-12-08T09:59:35.419Z,99879.56
2022-12-08T10:00:37.859Z,99863.41
2022-12-08T10:01:43.574Z,99863.44
2022-12-08T10:02:47.666Z,99871.59
2022-12-08T10:03:50.349Z,99871.72
2022-12-08T10:04:56.052Z,99863.75
2022-12-08T10:06:09.683Z,99867.25
2022-12-08T10:07:27.258Z,99867.13
2022-12-08T10:08:55.936Z,99859.28
2022-12-08T10:10:04.315Z,99859.91
2022-12-08T10:11:29.512Z,99867.53
2022-12-08T10:12:48.600Z,99855.13
2022-12-08T10:14:13.112Z,99859.53
2022-12-08T10:15:53.294Z,99854.41
2022-12-08T10:17:04.033Z,99847.78
2022-12-08T10:18:16.896Z,99854.13
2022-12-08T10:19:25.236Z,99850.47
2022-12-08T10:20:37.551Z,99857.84
2022-12-08T10:21:40.812Z,99851.94
2022-12-08T10:22:45.085Z,99850.88
2022-12-08T10:23:51.354Z,99848.94
2022-12-08T10:24:58.325Z,99847.28
2022-12-08T10:26:20.320Z,99850.00
2022-12-08T10:27:25.324Z,99840.97
2022-12-08T10:28:27.637Z,99843.72
2022-12-08T10:29:30.408Z,99848.09
2022-12-08T10:30:32.862Z,99835.47
2022-12-08T10:31:35.565Z,99836.31
2022-12-08T10:32:38.239Z,99841.19
2022-12-08T10:33:46.976Z,99837.63
2022-12-08T10:35:04.412Z,99834.03
2022-12-08T10:36:07.054Z,99831.28
2022-12-08T10:37:10.366Z,99831.25
2022-12-08T10:38:32.218Z,99836.69
2022-12-08T10:39:45.683Z,99832.16
2022-12-08T10:40:50.201Z,99833.03
2022-12-08T10:41:52.605Z,99835.63
2022-12-08T10:42:59.318Z,99831.13
2022-12-08T10:44:02.229Z,99840.94
2022-12-08T10:45:16.047Z,99833.47
2022-12-08T10:46:19.539Z,99832.66
2022-12-08T10:47:23.752Z,99830.25
2022-12-08T10:48:31.510Z,99832.19
2022-12-08T10:49:38.657Z,99831.09
2022-12-08T10:50:46.557Z,99825.81
2022-12-08T10:51:48.786Z,99823.13
2022-12-08T10:53:11.801Z,99820.16
2022-12-08T10:54:29.195Z,99829.84
2022-12-08T10:55:46.619Z,99832.31
2022-12-08T10:56:55.490Z,99827.00
2022-12-08T10:57:57.901Z,99822.38
2022-12-08T10:59:15.672Z,99820.44
2022-12-08T11:00:23.214Z,99827.50
2022-12-08T11:01:32.832Z,99830.56
2022-12-08T11:02:59.992Z,99824.53
2022-12-08T11:04:05.405Z,99824.09
2022-12-08T11:05:22.782Z,99829.22
2022-12-08T11:06:34.268Z,99820.22
2022-12-08T11:07:36.654Z,99819.22
2022-12-08T11:08:57.523Z,99819.16
2022-12-08T11:10:00.948Z,99819.91
2022-12-08T11:11:03.139Z,99815.66
2022-12-08T11:12:20.132Z,99813.69
2022-12-08T11:13:26.133Z,99808.91
2022-12-08T11:14:57.230Z,99814.00
2022-12-08T11:15:59.431Z,99810.44
2022-12-08T11:17:10.625Z,99809.16
2022-12-08T11:18:26.986Z,99810.13
2022-12-08T11:19:29.437Z,99809.03
2022-12-08T11:20:39.969Z,99806.59
2022-12-08T11:21:42.878Z,99795.50
2022-12-08T11:22:53.231Z,99800.28
2022-12-08T11:23:55.407Z,99804.03
2022-12-08T11:25:15.874Z,99789.66
2022-12-08T11:26:33.709Z,99795.09
2022-12-08T11:27:39.256Z,99793.16
2022-12-08T11:28:41.706Z,99787.72
2022-12-08T11:29:43.961Z,99787.72
2022-12-08T11:30:54.642Z,99791.00
2022-12-08T11:32:04.406Z,99791.72
2022-12-08T11:33:17.415Z,99791.47
2022-12-08T11:34:28.479Z,99790.66
2022-12-08T11:35:35.279Z,99787.81
2022-12-08T11:36:38.528Z,99781.69
2022-12-08T11:37:44.376Z,99783.66
2022-12-08T11:38:48.582Z,99784.50
2022-12-08T11:39:55.351Z,99779.72
2022-12-08T11:41:08.387Z,99787.00
2022-12-08T11:42:19.015Z,99781.81
2022-12-08T11:43:33.395Z,99782.34
2022-12-08T11:44:57.631Z,99781.81
2022-12-08T11:46:03.085Z,99779.16
2022-12-08T11:47:09.349Z,99776.47
2022-12-08T11:48:32.885Z,99778.28
2022-12-08T11:49:41.950Z,99777.28
2022-12-08T11:50:56.527Z,99778.09
2022-12-08T11:52:29.709Z,99787.00
2022-12-08T11:53:41.799Z,99779.81
2022-12-08T11:55:33.757Z,99781.03
2022-12-08T11:56:53.051Z,99782.75
2022-12-08T11:57:59.115Z,99775.09
2022-12-08T11:59:10.464Z,99771.00
2022-12-08T12:00:17.469Z,99769.19
2022-12-08T12:01:25.331Z,99771.84
2022-12-08T12:02:31.096Z,99769.66
2022-12-08T12:03:44.981Z,99767.44
2022-12-08T12:04:52.934Z,99767.44
2022-12-08T12:08:09.886Z,99761.72
2022-12-08T12:09:19.616Z,99761.97
2022-12-08T12:10:49.229Z,99758.41
2022-12-08T12:12:28.987Z,99762.53
2022-12-08T12:13:46.293Z,99772.09
2022-12-08T12:15:16.587Z,99763.44
2022-12-08T12:16:46.410Z,99763.81
2022-12-08T12:17:57.340Z,99774.50
2022-12-08T12:19:01.538Z,99771.25
2022-12-08T12:20:16.372Z,99768.59
2022-12-08T12:21:42.015Z,99770.94
2022-12-08T12:22:51.693Z,99762.16
2022-12-08T12:24:26.027Z,99759.47
2022-12-08T12:25:33.463Z,99766.25
2022-12-08T12:26:39.086Z,99760.19
2022-12-08T12:27:41.719Z,99764.56
2022-12-08T12:28:50.297Z,99755.03
2022-12-08T12:30:00.248Z,99754.03
2022-12-08T12:31:10.114Z,99744.84
2022-12-08T12:32:15.511Z,99751.00
2022-12-08T12:33:21.728Z,99753.66
2022-12-08T12:34:39.118Z,99748.50
2022-12-08T12:35:43.791Z,99753.59
2022-12-08T12:37:06.110Z,99750.94
2022-12-08T12:38:41.133Z,99752.88
2022-12-08T12:39:52.313Z,99751.78
2022-12-08T12:41:03.728Z,99748.31
2022-12-08T12:42:28.756Z,99750.41
2022-12-08T12:43:36.685Z,99751.22
2022-12-08T12:44:40.316Z,99750.66
2022-12-08T12:45:45.850Z,99757.69
2022-12-08T12:46:50.916Z,99752.31
2022-12-08T12:47:57.047Z,99748.72
2022-12-08T12:49:36.144Z,99750.13
2022-12-08T12:50:49.549Z,99747.28
2022-12-08T12:51:55.660Z,99747.63
2022-12-08T12:53:00.917Z,99742.34
2022-12-08T12:54:27.256Z,99745.19
2022-12-08T12:55:52.964Z,99740.50
2022-12-08T12:57:14.539Z,99737.97
2022-12-08T12:58:36.940Z,99739.75
2022-12-08T12:59:55.139Z,99748.03
2022-12-08T13:01:10.487Z,99740.28
2022-12-08T13:02:30.750Z,99733.47
2022-12-08T13:03:33.690Z,99746.06
2022-12-08T13:04:37.947Z,99736.44
2022-12-08T13:05:51.966Z,99738.97
2022-12-08T13:06:56.624Z,99742.16